Weather at St Thomas Municipal Airport

Public forecast

Using degrees Celsius for public forecast. Weather courtesy of forecast.io.

Closest aviation weather report (METAR) to St Thomas Municipal Airport

Report is more than 6 hours old.

Closest report is London Airport, 16.1 nm (29.7 km) N. Retrieved 2020/10/29 15:00 UTC (22 hours ago):

CYXU 291500Z 06005KT 15SM FEW140 BKN210 07/04 A2978 RMK AC2CI5 SLP092

Closest aviation forecast (TAF) to St Thomas Municipal Airport

Closest forecast is London Airport, 16.1 nm (29.7 km) N. Retrieved 2020/10/30 12:42 UTC (21 minutes ago):

TAF TAF CYXU 301138Z 3012/3112 02007KT P6SM SCT020 OVC030 TEMPO 3012/3013 4SM -SN OVC020 FM301300 01008KT P6SM BKN030 TEMPO 3013/3015 BKN020 BECMG 3017/3019 34010KT FM310200 02006KT P6SM FEW025 BECMG 3104/3106 VRB03KT RMK NXT FCST BY 301800Z